createdAt,value
2023-01-12T00:01:42.176Z,6.12
2023-01-12T00:04:08.918Z,6.14
2023-01-12T00:06:35.525Z,6.10
2023-01-12T00:09:04.105Z,6.09
2023-01-12T00:11:30.879Z,6.06
2023-01-12T00:13:58.057Z,6.11
2023-01-12T00:16:34.929Z,6.09
2023-01-12T00:19:10.919Z,6.05
2023-01-12T00:22:01.752Z,6.05
2023-01-12T00:24:37.283Z,6.05
2023-01-12T00:27:09.530Z,6.05
2023-01-12T00:29:36.626Z,6.08
2023-01-12T00:32:04.615Z,6.06
2023-01-12T00:34:31.130Z,6.05
2023-01-12T00:37:00.431Z,6.02
2023-01-12T00:39:26.866Z,6.04
2023-01-12T00:42:11.787Z,5.99
2023-01-12T00:44:58.017Z,5.99
2023-01-12T00:47:24.470Z,5.99
2023-01-12T00:49:51.153Z,6.01
2023-01-12T00:52:30.018Z,6.02
2023-01-12T00:54:56.815Z,6.03
2023-01-12T00:57:23.301Z,6.07
2023-01-12T00:59:49.803Z,6.02
2023-01-12T01:02:16.371Z,6.08
2023-01-12T01:04:42.971Z,6.02
2023-01-12T01:07:09.443Z,6.02
2023-01-12T01:09:35.901Z,5.98
2023-01-12T01:12:04.436Z,5.99
2023-01-12T01:14:30.937Z,6.04
2023-01-12T01:16:57.340Z,5.99
2023-01-12T01:19:24.239Z,5.99
2023-01-12T01:21:50.686Z,6.00
2023-01-12T01:24:17.340Z,5.98
2023-01-12T01:26:44.228Z,5.99
2023-01-12T01:29:11.155Z,5.98
2023-01-12T01:31:37.880Z,5.99
2023-01-12T01:34:04.428Z,5.96
2023-01-12T01:36:30.888Z,5.96
2023-01-12T01:38:57.401Z,5.95
2023-01-12T01:41:28.992Z,5.94
2023-01-12T01:44:03.780Z,5.97
2023-01-12T01:46:50.577Z,6.00
2023-01-12T01:49:33.883Z,6.00
2023-01-12T01:52:14.090Z,6.08
2023-01-12T01:54:46.759Z,6.09
2023-01-12T01:57:15.487Z,6.12
2023-01-12T01:59:48.839Z,6.12
2023-01-12T02:02:17.085Z,6.11
2023-01-12T02:04:44.301Z,6.13
2023-01-12T02:07:11.012Z,6.14
2023-01-12T02:09:38.318Z,6.15
2023-01-12T02:12:23.983Z,6.16
2023-01-12T02:15:10.588Z,6.13
2023-01-12T02:18:11.489Z,6.11
2023-01-12T02:21:18.519Z,6.16
2023-01-12T02:24:23.466Z,6.14
2023-01-12T02:27:03.787Z,6.13
2023-01-12T02:29:52.253Z,6.16
2023-01-12T02:32:37.183Z,6.14
2023-01-12T02:35:24.866Z,6.13
2023-01-12T02:38:00.789Z,6.09
2023-01-12T02:40:48.003Z,6.08
2023-01-12T02:43:28.645Z,6.06
2023-01-12T02:46:00.314Z,6.08
2023-01-12T02:49:04.882Z,6.04
2023-01-12T02:51:49.895Z,6.04
2023-01-12T02:54:19.800Z,6.05
2023-01-12T02:56:52.134Z,5.98
2023-01-12T02:59:24.570Z,5.99
2023-01-12T03:01:53.622Z,5.97
2023-01-12T03:04:21.795Z,5.98
2023-01-12T03:07:19.887Z,6.00
2023-01-12T03:09:54.353Z,5.96
2023-01-12T03:12:28.880Z,5.97
2023-01-12T03:14:58.526Z,5.96
2023-01-12T03:17:38.021Z,6.02
2023-01-12T03:20:17.333Z,6.01
2023-01-12T03:22:47.435Z,5.97
2023-01-12T03:25:17.318Z,6.02
2023-01-12T03:27:48.542Z,6.05
2023-01-12T03:30:20.791Z,6.08
2023-01-12T03:32:48.137Z,6.04
2023-01-12T03:35:14.735Z,6.06
2023-01-12T03:37:54.113Z,6.04
2023-01-12T03:40:43.128Z,6.09
2023-01-12T03:43:17.674Z,6.08
2023-01-12T03:45:58.758Z,6.12
2023-01-12T03:48:38.615Z,6.13
2023-01-12T03:51:12.387Z,6.13
2023-01-12T03:53:40.527Z,6.12
2023-01-12T03:56:10.950Z,6.17
2023-01-12T03:58:37.723Z,6.21
2023-01-12T04:01:05.826Z,6.23
2023-01-12T04:03:32.510Z,6.23
2023-01-12T04:05:59.002Z,6.23
2023-01-12T04:08:25.407Z,6.27
2023-01-12T04:10:51.816Z,6.24
2023-01-12T04:13:18.257Z,6.25
2023-01-12T04:15:44.675Z,6.24
2023-01-12T04:18:12.541Z,6.24
2023-01-12T04:20:39.781Z,6.32
2023-01-12T04:23:07.178Z,6.34
2023-01-12T04:25:34.146Z,6.32
2023-01-12T04:28:04.196Z,6.31
2023-01-12T04:30:35.231Z,6.42
2023-01-12T04:33:08.121Z,6.37
2023-01-12T04:35:35.028Z,6.36
2023-01-12T04:38:06.272Z,6.40
2023-01-12T04:40:32.685Z,6.38
2023-01-12T04:43:02.027Z,6.43
2023-01-12T04:45:33.534Z,6.41
2023-01-12T04:48:06.523Z,6.47
2023-01-12T04:50:33.540Z,6.49
2023-01-12T04:53:02.862Z,6.45
2023-01-12T04:55:29.416Z,6.45
2023-01-12T04:57:57.008Z,6.45
2023-01-12T05:00:23.625Z,6.49
2023-01-12T05:02:50.249Z,6.52
2023-01-12T05:05:16.852Z,6.54
2023-01-12T05:08:03.306Z,6.58
2023-01-12T05:10:30.286Z,6.56
2023-01-12T05:12:56.816Z,6.56
2023-01-12T05:15:23.902Z,6.59
2023-01-12T05:17:50.386Z,6.61
2023-01-12T05:20:17.067Z,6.60
2023-01-12T05:22:43.539Z,6.61
2023-01-12T05:25:10.757Z,6.65
2023-01-12T05:27:37.167Z,6.63
2023-01-12T05:30:03.969Z,6.67
2023-01-12T05:32:30.454Z,6.68
2023-01-12T05:34:56.916Z,6.73
2023-01-12T05:37:23.353Z,6.75
2023-01-12T05:39:49.793Z,6.79
2023-01-12T05:42:34.752Z,6.78
2023-01-12T05:45:01.154Z,6.85
2023-01-12T05:47:28.342Z,6.88
2023-01-12T05:49:54.743Z,6.92
2023-01-12T05:52:21.190Z,6.92
2023-01-12T05:54:47.656Z,6.92
2023-01-12T05:57:14.081Z,6.94
2023-01-12T05:59:40.475Z,6.99
2023-01-12T06:02:06.982Z,7.00
2023-01-12T06:04:33.459Z,6.99
2023-01-12T06:06:59.915Z,7.03
2023-01-12T06:09:26.319Z,7.07
2023-01-12T06:12:11.484Z,7.07
2023-01-12T06:14:37.989Z,7.05
2023-01-12T06:17:04.942Z,7.07
2023-01-12T06:19:31.460Z,7.07
2023-01-12T06:21:59.605Z,7.04
2023-01-12T06:24:28.163Z,7.03
2023-01-12T06:26:55.186Z,7.06
2023-01-12T06:29:21.666Z,7.06
2023-01-12T06:31:48.113Z,7.08
2023-01-12T06:34:14.542Z,7.12
2023-01-12T06:36:41.069Z,7.10
2023-01-12T06:39:07.821Z,7.10
2023-01-12T06:41:53.346Z,7.11
2023-01-12T06:44:19.965Z,7.10
2023-01-12T06:46:46.541Z,7.09
2023-01-12T06:49:12.993Z,7.10
2023-01-12T06:51:39.499Z,7.10
2023-01-12T06:54:05.918Z,7.09
2023-01-12T06:56:32.684Z,7.12
2023-01-12T06:58:59.139Z,7.19
2023-01-12T07:01:27.120Z,7.18
2023-01-12T07:03:54.149Z,7.17
2023-01-12T07:06:20.659Z,7.23
2023-01-12T07:08:47.040Z,7.17
2023-01-12T07:11:15.003Z,7.17
2023-01-12T07:13:41.440Z,7.22
2023-01-12T07:16:08.142Z,7.21
2023-01-12T07:18:34.868Z,7.24
2023-01-12T07:21:09.268Z,7.22
2023-01-12T07:23:37.720Z,7.25
2023-01-12T07:26:04.416Z,7.28
2023-01-12T07:28:31.581Z,7.25
2023-01-12T07:31:05.824Z,7.37
2023-01-12T07:33:39.516Z,7.36
2023-01-12T07:36:06.336Z,7.39
2023-01-12T07:38:33.070Z,7.40
2023-01-12T07:41:01.157Z,7.44
2023-01-12T07:43:28.050Z,7.47
2023-01-12T07:45:58.403Z,7.48
2023-01-12T07:48:26.664Z,7.46
2023-01-12T07:50:53.709Z,7.43
2023-01-12T07:53:23.641Z,7.47
2023-01-12T07:55:50.216Z,7.54
2023-01-12T07:58:16.813Z,7.50
2023-01-12T08:00:43.330Z,7.52
2023-01-12T08:03:12.327Z,7.54
2023-01-12T08:05:39.280Z,7.55
2023-01-12T08:08:06.655Z,7.59
2023-01-12T08:10:33.484Z,7.57
2023-01-12T08:12:59.992Z,7.95
2023-01-12T08:15:28.821Z,8.46
2023-01-12T08:18:00.988Z,8.18
2023-01-12T08:20:32.261Z,8.03
2023-01-12T08:23:16.084Z,7.94
2023-01-12T08:25:45.765Z,7.90
2023-01-12T08:28:17.387Z,7.88
2023-01-12T08:30:47.345Z,7.86
2023-01-12T08:33:14.854Z,7.87
2023-01-12T08:35:41.969Z,7.87
2023-01-12T08:38:08.405Z,7.90
2023-01-12T08:40:53.205Z,7.88
2023-01-12T08:43:39.564Z,7.90
2023-01-12T08:46:09.083Z,7.89
2023-01-12T08:48:39.177Z,7.89
2023-01-12T08:51:07.929Z,7.95
2023-01-12T08:53:35.376Z,8.02
2023-01-12T08:56:02.282Z,7.99
2023-01-12T08:58:28.943Z,7.99
2023-01-12T09:00:55.728Z,8.06
2023-01-12T09:03:22.299Z,8.07
2023-01-12T09:05:48.682Z,8.08
2023-01-12T09:08:17.978Z,8.15
2023-01-12T09:10:44.409Z,8.17
2023-01-12T09:13:15.549Z,8.15
2023-01-12T09:15:48.316Z,8.20
2023-01-12T09:18:20.249Z,8.24
2023-01-12T09:20:46.916Z,8.27
2023-01-12T09:23:16.105Z,8.23
2023-01-12T09:25:42.522Z,8.23
2023-01-12T09:28:08.962Z,8.25
2023-01-12T09:30:35.384Z,8.26
2023-01-12T09:33:01.860Z,8.28
2023-01-12T09:35:28.274Z,8.30
2023-01-12T09:37:54.645Z,8.33
2023-01-12T09:40:21.056Z,8.33
2023-01-12T09:43:09.018Z,8.34
2023-01-12T09:45:53.856Z,8.38
2023-01-12T09:48:23.216Z,8.42
2023-01-12T09:51:11.913Z,8.44
2023-01-12T09:53:41.148Z,8.47
2023-01-12T09:56:37.894Z,8.51
2023-01-12T09:59:31.198Z,8.57
2023-01-12T10:01:57.781Z,8.68
2023-01-12T10:04:25.003Z,8.72
2023-01-12T10:06:51.988Z,8.82
2023-01-12T10:09:20.246Z,8.85
2023-01-12T10:12:12.958Z,8.86
2023-01-12T10:14:48.955Z,8.86
2023-01-12T10:17:38.617Z,8.98
2023-01-12T10:20:08.473Z,9.01
2023-01-12T10:22:53.665Z,9.03
2023-01-12T10:25:37.752Z,9.02
2023-01-12T10:28:08.813Z,9.05
2023-01-12T10:30:40.248Z,9.11
2023-01-12T10:33:15.992Z,9.17
2023-01-12T10:35:50.972Z,9.20
2023-01-12T10:38:32.466Z,9.21
2023-01-12T10:41:14.256Z,9.12
2023-01-12T10:43:42.555Z,9.14
2023-01-12T10:46:19.293Z,9.11
2023-01-12T10:48:48.332Z,9.07
2023-01-12T10:51:30.048Z,9.02
2023-01-12T10:54:10.735Z,9.11
2023-01-12T10:56:44.569Z,9.07
2023-01-12T10:59:14.376Z,8.95
2023-01-12T11:01:46.742Z,8.86
2023-01-12T11:04:16.614Z,8.75
2023-01-12T11:06:45.449Z,8.71
2023-01-12T11:09:27.242Z,8.61
2023-01-12T11:12:01.813Z,8.58
2023-01-12T11:14:31.525Z,8.49
2023-01-12T11:17:30.652Z,8.45
2023-01-12T11:20:00.924Z,8.38
2023-01-12T11:22:32.030Z,8.33
2023-01-12T11:25:07.273Z,8.33
2023-01-12T11:27:43.192Z,8.32
2023-01-12T11:30:29.747Z,8.34
2023-01-12T11:33:09.074Z,8.33
2023-01-12T11:36:03.233Z,8.32
2023-01-12T11:38:38.907Z,8.27
2023-01-12T11:41:10.306Z,8.22
2023-01-12T11:43:55.874Z,8.23
2023-01-12T11:46:42.463Z,8.21
2023-01-12T11:49:53.387Z,8.23
2023-01-12T11:52:19.857Z,8.23
2023-01-12T11:54:46.426Z,8.31
2023-01-12T11:57:44.044Z,8.28
2023-01-12T12:00:36.141Z,8.29
2023-01-12T12:03:31.956Z,8.30
2023-01-12T12:06:22.665Z,8.35
2023-01-12T12:09:14.979Z,8.42
2023-01-12T12:11:57.527Z,8.48
2023-01-12T12:14:54.358Z,8.54
2023-01-12T12:17:48.960Z,8.60
2023-01-12T12:20:33.057Z,8.61
2023-01-12T12:23:04.761Z,8.63
2023-01-12T12:25:56.000Z,8.63
2023-01-12T12:28:31.697Z,8.65
2023-01-12T12:31:13.744Z,8.70
2023-01-12T12:33:52.118Z,8.74
2023-01-12T12:36:30.328Z,8.75
2023-01-12T12:39:18.597Z,8.74
2023-01-12T12:42:14.281Z,8.80
2023-01-12T12:45:09.843Z,8.85
2023-01-12T12:47:42.363Z,8.87
2023-01-12T12:50:23.849Z,8.95
2023-01-12T12:53:05.941Z,9.00
2023-01-12T12:55:32.763Z,9.06
2023-01-12T12:58:05.210Z,9.07
2023-01-12T13:00:42.313Z,9.07
2023-01-12T13:03:10.462Z,9.08
2023-01-12T13:05:43.070Z,9.07
2023-01-12T13:08:22.654Z,9.13
2023-01-12T13:10:57.557Z,9.11
2023-01-12T13:13:33.624Z,9.11
2023-01-12T13:16:15.439Z,9.10
2023-01-12T13:19:03.185Z,9.19
2023-01-12T13:21:38.285Z,9.26
2023-01-12T13:24:11.304Z,9.27
2023-01-12T13:26:45.364Z,9.26
2023-01-12T13:29:24.212Z,9.31
2023-01-12T13:31:52.316Z,9.31
2023-01-12T13:34:37.563Z,9.26
2023-01-12T13:37:26.114Z,9.31
2023-01-12T13:40:04.212Z,9.32
2023-01-12T13:42:49.274Z,9.35
2023-01-12T13:45:21.100Z,9.33
2023-01-12T13:47:50.132Z,9.41
2023-01-12T13:50:23.033Z,9.41
2023-01-12T13:53:05.015Z,9.44
2023-01-12T13:55:33.474Z,9.39
2023-01-12T13:58:04.257Z,9.37
2023-01-12T14:00:35.050Z,9.43
2023-01-12T14:03:04.405Z,9.42
2023-01-12T14:05:51.547Z,9.36
2023-01-12T14:08:51.096Z,9.37
2023-01-12T14:11:35.452Z,9.42
2023-01-12T14:14:42.595Z,9.39
2023-01-12T14:17:46.573Z,9.41
2023-01-12T14:20:24.678Z,9.34
2023-01-12T14:23:15.603Z,9.42
2023-01-12T14:25:42.917Z,9.37
2023-01-12T14:28:17.908Z,9.36
2023-01-12T14:30:51.893Z,9.35
2023-01-12T14:33:24.054Z,9.42
2023-01-12T14:35:55.296Z,9.52
2023-01-12T14:38:26.364Z,9.46
2023-01-12T14:41:06.761Z,9.52
2023-01-12T14:43:54.232Z,9.52
2023-01-12T14:46:33.664Z,9.52
2023-01-12T14:49:19.828Z,9.53
2023-01-12T14:51:53.787Z,9.54
2023-01-12T14:54:31.536Z,9.59
2023-01-12T14:57:05.595Z,9.65
2023-01-12T14:59:35.087Z,9.62
2023-01-12T15:02:13.982Z,9.62
2023-01-12T15:05:05.191Z,9.62
2023-01-12T15:07:41.536Z,9.60
2023-01-12T15:10:10.814Z,9.62
2023-01-12T15:12:48.260Z,9.60
2023-01-12T15:15:25.029Z,9.67
2023-01-12T15:18:12.501Z,9.63
2023-01-12T15:21:00.159Z,9.68
2023-01-12T15:23:53.394Z,9.71
2023-01-12T15:26:20.759Z,9.75
2023-01-12T15:28:50.144Z,9.71
2023-01-12T15:31:19.486Z,9.67
2023-01-12T15:33:46.542Z,9.72
2023-01-12T15:36:14.015Z,9.70
2023-01-12T15:38:40.531Z,9.69
2023-01-12T15:41:07.175Z,9.69
2023-01-12T15:43:33.547Z,9.74
2023-01-12T15:46:00.347Z,9.71
2023-01-12T15:48:27.021Z,9.70
2023-01-12T15:50:53.673Z,9.74
2023-01-12T15:53:25.339Z,9.72
2023-01-12T15:55:51.863Z,9.74
2023-01-12T15:58:19.570Z,9.79
2023-01-12T16:00:46.752Z,9.74
2023-01-12T16:03:38.202Z,9.79
2023-01-12T16:06:01.092Z,9.79
2023-01-12T16:08:27.998Z,9.80
2023-01-12T16:11:09.803Z,9.84
2023-01-12T16:13:39.076Z,9.96
2023-01-12T16:16:06.169Z,9.89
2023-01-12T16:18:32.761Z,9.95
2023-01-12T16:21:00.012Z,9.91
2023-01-12T16:23:27.360Z,9.96
2023-01-12T16:25:58.468Z,9.96
2023-01-12T16:28:26.369Z,9.90
2023-01-12T16:30:55.022Z,10.03
2023-01-12T16:33:22.073Z,9.97
2023-01-12T16:35:49.509Z,10.09
2023-01-12T16:38:18.708Z,10.03
2023-01-12T16:40:45.416Z,10.00
2023-01-12T16:43:12.392Z,10.07
2023-01-12T16:45:42.691Z,10.03
2023-01-12T16:48:09.348Z,10.04
2023-01-12T16:50:39.858Z,10.09
2023-01-12T16:53:08.382Z,10.05
2023-01-12T16:55:37.860Z,10.09
2023-01-12T16:58:05.308Z,10.03
2023-01-12T17:00:33.586Z,10.01
2023-01-12T17:03:02.554Z,10.04
2023-01-12T17:05:30.036Z,10.04
2023-01-12T17:07:56.849Z,10.06
2023-01-12T17:10:23.829Z,10.09
2023-01-12T17:12:56.443Z,10.07
2023-01-12T17:15:26.215Z,10.16
2023-01-12T17:17:53.788Z,10.12
2023-01-12T17:20:20.854Z,10.12
2023-01-12T17:22:48.009Z,10.18
2023-01-12T17:25:15.811Z,10.15
2023-01-12T17:27:42.903Z,10.31
2023-01-12T17:30:10.218Z,10.23
2023-01-12T17:32:39.398Z,10.24
2023-01-12T17:35:09.278Z,10.21
2023-01-12T17:37:36.689Z,10.18
2023-01-12T17:40:03.950Z,10.22
2023-01-12T17:42:49.378Z,10.21
2023-01-12T17:45:16.055Z,10.22
2023-01-12T17:47:42.549Z,10.24
2023-01-12T17:50:09.904Z,10.33
2023-01-12T17:52:36.628Z,10.37
2023-01-12T17:55:03.123Z,10.38
2023-01-12T17:57:33.400Z,10.36
2023-01-12T18:00:00.062Z,10.29
2023-01-12T18:02:26.626Z,10.28
2023-01-12T18:04:53.130Z,10.29
2023-01-12T18:07:19.600Z,10.29
2023-01-12T18:09:46.173Z,10.31
2023-01-12T18:12:12.914Z,10.35
2023-01-12T18:14:39.303Z,10.21
2023-01-12T18:17:06.005Z,10.24
2023-01-12T18:19:33.368Z,10.24
2023-01-12T18:22:05.827Z,10.28
2023-01-12T18:24:36.271Z,10.26
2023-01-12T18:27:04.430Z,10.23
2023-01-12T18:29:30.885Z,10.27
2023-01-12T18:31:57.262Z,10.20
2023-01-12T18:34:23.998Z,10.19
2023-01-12T18:36:50.472Z,10.20
2023-01-12T18:39:19.339Z,10.20
2023-01-12T18:42:04.374Z,10.20
2023-01-12T18:44:32.565Z,10.17
2023-01-12T18:47:19.213Z,10.16
2023-01-12T18:49:49.705Z,10.18
2023-01-12T18:52:37.022Z,10.14
2023-01-12T18:55:04.830Z,10.25
2023-01-12T18:57:32.252Z,10.24
2023-01-12T19:00:14.898Z,10.27
2023-01-12T19:02:44.278Z,10.24
2023-01-12T19:05:14.649Z,10.24
2023-01-12T19:07:59.842Z,10.29
2023-01-12T19:10:27.990Z,10.26
2023-01-12T19:13:14.509Z,10.29
2023-01-12T19:16:00.478Z,10.22
2023-01-12T19:18:27.968Z,10.30
2023-01-12T19:21:13.194Z,10.27
2023-01-12T19:23:59.560Z,10.30
2023-01-12T19:26:57.975Z,10.30
2023-01-12T19:29:24.729Z,10.35
2023-01-12T19:31:51.333Z,10.34
2023-01-12T19:34:18.908Z,10.35
2023-01-12T19:36:45.344Z,10.35
2023-01-12T19:39:12.836Z,10.30
2023-01-12T19:41:57.872Z,10.29
2023-01-12T19:44:24.466Z,10.33
2023-01-12T19:46:51.011Z,10.37
2023-01-12T19:49:18.495Z,10.38
2023-01-12T19:51:48.085Z,10.28
2023-01-12T19:54:16.760Z,10.31
2023-01-12T19:56:46.567Z,10.28
2023-01-12T19:59:13.666Z,10.20
2023-01-12T20:01:40.197Z,10.14
2023-01-12T20:04:06.770Z,10.07
2023-01-12T20:06:33.397Z,9.98
2023-01-12T20:09:02.318Z,9.90
2023-01-12T20:11:29.669Z,9.81
2023-01-12T20:13:56.120Z,9.75
2023-01-12T20:16:32.267Z,9.72
2023-01-12T20:18:59.595Z,9.60
2023-01-12T20:21:31.286Z,9.61
2023-01-12T20:23:57.675Z,9.55
2023-01-12T20:26:25.170Z,9.46
2023-01-12T20:28:52.901Z,9.44
2023-01-12T20:31:20.660Z,9.47
2023-01-12T20:33:47.881Z,9.36
2023-01-12T20:36:16.399Z,9.29
2023-01-12T20:38:43.941Z,9.27
2023-01-12T20:41:11.155Z,9.21
2023-01-12T20:43:39.142Z,9.17
2023-01-12T20:46:10.911Z,9.15
2023-01-12T20:48:40.136Z,9.13
2023-01-12T20:51:12.725Z,9.13
2023-01-12T20:53:39.881Z,9.10
2023-01-12T20:56:07.073Z,9.11
2023-01-12T20:58:33.911Z,9.04
2023-01-12T21:01:00.673Z,9.04
2023-01-12T21:03:27.185Z,9.10
2023-01-12T21:05:53.884Z,9.03
2023-01-12T21:08:20.517Z,9.06
2023-01-12T21:10:50.343Z,9.04
2023-01-12T21:13:17.699Z,9.00
2023-01-12T21:15:45.138Z,8.98
2023-01-12T21:18:11.907Z,8.94
2023-01-12T21:20:43.083Z,8.92
2023-01-12T21:23:09.752Z,8.91
2023-01-12T21:25:41.335Z,8.90
2023-01-12T21:28:08.033Z,8.87
2023-01-12T21:30:35.119Z,8.86
2023-01-12T21:33:01.563Z,8.90
2023-01-12T21:35:28.094Z,8.86
2023-01-12T21:37:54.774Z,8.84
2023-01-12T21:40:21.476Z,8.86
2023-01-12T21:43:06.329Z,8.85
2023-01-12T21:45:38.173Z,8.88
2023-01-12T21:48:04.834Z,8.84
2023-01-12T21:50:32.530Z,8.86
2023-01-12T21:52:59.696Z,8.84
2023-01-12T21:55:26.451Z,8.81
2023-01-12T21:57:55.014Z,8.79
2023-01-12T22:00:22.580Z,8.81
2023-01-12T22:02:51.155Z,8.84
2023-01-12T22:05:18.332Z,8.77
2023-01-12T22:07:45.063Z,8.79
2023-01-12T22:10:20.781Z,8.79
2023-01-12T22:12:50.766Z,8.81
2023-01-12T22:15:17.815Z,8.79
2023-01-12T22:17:44.610Z,8.79
2023-01-12T22:20:12.564Z,8.75
2023-01-12T22:22:39.108Z,8.72
2023-01-12T22:25:07.485Z,8.74
2023-01-12T22:27:37.579Z,8.76
2023-01-12T22:30:06.124Z,8.72
2023-01-12T22:32:33.117Z,8.73
2023-01-12T22:34:59.677Z,8.73
2023-01-12T22:37:27.461Z,8.73
2023-01-12T22:39:55.027Z,8.72
2023-01-12T22:42:42.869Z,8.76
2023-01-12T22:45:09.958Z,8.77
2023-01-12T22:47:47.543Z,8.78
2023-01-12T22:50:14.840Z,8.77
2023-01-12T22:52:41.838Z,8.75
2023-01-12T22:55:09.079Z,8.76
2023-01-12T22:57:35.536Z,8.75
2023-01-12T23:00:05.345Z,8.74
2023-01-12T23:02:50.594Z,8.74
2023-01-12T23:05:17.813Z,8.75
2023-01-12T23:07:44.456Z,8.81
2023-01-12T23:10:11.013Z,8.82
2023-01-12T23:12:37.529Z,8.76
2023-01-12T23:15:04.783Z,8.76
2023-01-12T23:17:32.848Z,8.73
2023-01-12T23:19:59.296Z,8.74
2023-01-12T23:22:25.733Z,8.71
2023-01-12T23:24:52.181Z,8.75
2023-01-12T23:27:18.665Z,8.74
2023-01-12T23:29:47.007Z,8.74
2023-01-12T23:32:13.657Z,8.73
2023-01-12T23:34:40.210Z,8.71
2023-01-12T23:37:06.754Z,8.72
2023-01-12T23:39:33.293Z,8.71
2023-01-12T23:41:59.766Z,8.76
2023-01-12T23:44:26.231Z,8.74
2023-01-12T23:46:52.954Z,8.75
2023-01-12T23:49:19.443Z,8.79
2023-01-12T23:51:45.917Z,8.80
2023-01-12T23:54:16.847Z,8.80
2023-01-12T23:56:43.807Z,8.80
2023-01-12T23:59:10.251Z,8.84
